Estación Meteorológica Peña el Pijo (Robertgarden) [ 03/06/21 13:56:01 CET ]

Fecha Hora Presion(HPa) Temp (°C) Humedad % Rocio (°C) Viento ( m/s) Direccion Lluvia 1Hora(mm) Lluvia 24H(mm) LLuvia Total(mm)
2021-Feb-21 01:09:27 1002.500 6.2 87 4.2 - N     89.61
2021-Feb-21 02:09:44 1002.100 5.8 89 4.1 - N     89.61
2021-Feb-21 03:09:47 1001.100 5.3 88 3.5 - N     89.61
2021-Feb-21 04:09:46 999.700 5.1 89 3.4 - N     89.61
2021-Feb-21 05:09:20 998.700 5.0 90 3.5 - N     89.61
2021-Feb-21 06:09:44 998.400 5.1 90 3.6 - N     89.61
2021-Feb-21 07:09:11 998.400 5.0 88 3.2 - N     89.61
2021-Feb-21 08:09:26 997.600 5.3 86 3.1 - N     89.61
2021-Feb-21 09:09:24 997.600 5.5 87 3.5 - N     89.61
2021-Feb-21 10:10:05 997.100 6.9 84 4.4 - N     89.61
2021-Feb-21 11:09:06 997.100 8.2 82 5.3 - N     89.61
2021-Feb-21 12:09:17 996.600 9.4 76 5.3 - N     89.61
2021-Feb-21 13:09:52 996.000 9.2 77 5.3 - N     89.61
2021-Feb-21 14:10:12 995.000 11.1 71 6.1 - N     89.61
2021-Feb-21 15:09:33 993.900 10.4 74 6.0 - N     89.61
2021-Feb-21 16:09:51 994.100 10.2 74 5.8 - N     89.61
2021-Feb-21 17:09:44 993.900 10.1 74 5.7 - N     89.61
2021-Feb-21 18:10:05 994.300 8.6 82 5.7 - N     89.61
2021-Feb-21 19:09:02 995.300 6.3 93 5.2 - N     89.61
2021-Feb-21 20:09:03 996.100 6.1 94 5.2 - N     89.61
2021-Feb-21 21:10:02 996.600 5.9 95 5.1 - N     89.61
2021-Feb-21 22:09:52 997.500 4.6 94 3.7 - N     89.61
2021-Feb-21 23:10:07 998.100 4.0 94 3.1 - N     89.61

Temperatura Máxima:11°    Temperatura Mínima:
Presión Máxima:1002.500 Hpa    Presión Mínima:993.900 Hpa


Volver